sensor_id;sensor_type;location;lat;lon;timestamp;pressure;altitude;pressure_sealevel;temperature;humidity
72061;BME280;59925;52.136;5.420;2024-01-06T00:02:02;100505.44;;;4.52;100.00
72061;BME280;59925;52.136;5.420;2024-01-06T00:04:28;100510.44;;;4.48;100.00
72061;BME280;59925;52.136;5.420;2024-01-06T00:06:55;100510.22;;;4.50;100.00
72061;BME280;59925;52.136;5.420;2024-01-06T00:09:22;100516.56;;;4.49;100.00
72061;BME280;59925;52.136;5.420;2024-01-06T00:11:48;100517.81;;;4.46;100.00
72061;BME280;59925;52.136;5.420;2024-01-06T00:14:15;100523.13;;;4.46;100.00
72061;BME280;59925;52.136;5.420;2024-01-06T00:16:41;100523.13;;;4.46;100.00
72061;BME280;59925;52.136;5.420;2024-01-06T00:19:08;100532.13;;;4.45;100.00
72061;BME280;59925;52.136;5.420;2024-01-06T00:21:34;100538.47;;;4.44;100.00
72061;BME280;59925;52.136;5.420;2024-01-06T00:24:01;100544.50;;;4.39;100.00
72061;BME280;59925;52.136;5.420;2024-01-06T00:26:28;100550.75;;;4.33;100.00
72061;BME280;59925;52.136;5.420;2024-01-06T00:28:54;100555.50;;;4.31;100.00
72061;BME280;59925;52.136;5.420;2024-01-06T00:31:20;100556.53;;;4.30;100.00
72061;BME280;59925;52.136;5.420;2024-01-06T00:33:47;100551.69;;;4.27;100.00
72061;BME280;59925;52.136;5.420;2024-01-06T00:36:14;100551.59;;;4.22;100.00
72061;BME280;59925;52.136;5.420;2024-01-06T00:38:40;100548.94;;;4.22;100.00
72061;BME280;59925;52.136;5.420;2024-01-06T00:41:07;100547.78;;;4.18;100.00
72061;BME280;59925;52.136;5.420;2024-01-06T00:43:34;100557.34;;;4.19;100.00
72061;BME280;59925;52.136;5.420;2024-01-06T00:46:00;100555.41;;;4.14;100.00
72061;BME280;59925;52.136;5.420;2024-01-06T00:48:27;100559.44;;;4.17;100.00
72061;BME280;59925;52.136;5.420;2024-01-06T00:50:53;100559.19;;;4.18;100.00
72061;BME280;59925;52.136;5.420;2024-01-06T00:53:21;100564.28;;;4.20;100.00
72061;BME280;59925;52.136;5.420;2024-01-06T00:55:47;100562.88;;;4.17;100.00
72061;BME280;59925;52.136;5.420;2024-01-06T00:58:14;100563.38;;;4.14;100.00
72061;BME280;59925;52.136;5.420;2024-01-06T01:00:40;100564.88;;;4.10;100.00
72061;BME280;59925;52.136;5.420;2024-01-06T01:03:07;100566.47;;;4.11;100.00
72061;BME280;59925;52.136;5.420;2024-01-06T01:05:34;100566.25;;;4.12;100.00
72061;BME280;59925;52.136;5.420;2024-01-06T01:08:01;100573.88;;;4.09;100.00
72061;BME280;59925;52.136;5.420;2024-01-06T01:10:28;100576.84;;;4.12;100.00
72061;BME280;59925;52.136;5.420;2024-01-06T01:12:54;100580.91;;;4.15;100.00
72061;BME280;59925;52.136;5.420;2024-01-06T01:15:21;100584.81;;;4.12;100.00
72061;BME280;59925;52.136;5.420;2024-01-06T01:17:48;100590.81;;;4.08;100.00
72061;BME280;59925;52.136;5.420;2024-01-06T01:20:14;100594.16;;;4.03;100.00
72061;BME280;59925;52.136;5.420;2024-01-06T01:22:41;100602.13;;;4.03;100.00
72061;BME280;59925;52.136;5.420;2024-01-06T01:25:07;100604.19;;;4.01;100.00
72061;BME280;59925;52.136;5.420;2024-01-06T01:27:34;100605.72;;;3.97;100.00
72061;BME280;59925;52.136;5.420;2024-01-06T01:30:01;100609.41;;;3.96;100.00
72061;BME280;59925;52.136;5.420;2024-01-06T01:32:27;100611.69;;;3.92;100.00
72061;BME280;59925;52.136;5.420;2024-01-06T01:34:54;100610.06;;;3.91;100.00
72061;BME280;59925;52.136;5.420;2024-01-06T01:37:21;100620.13;;;3.89;100.00
72061;BME280;59925;52.136;5.420;2024-01-06T01:39:47;100623.94;;;3.81;100.00
72061;BME280;59925;52.136;5.420;2024-01-06T01:42:14;100633.94;;;3.79;100.00
72061;BME280;59925;52.136;5.420;2024-01-06T01:44:41;100643.63;;;3.74;100.00
72061;BME280;59925;52.136;5.420;2024-01-06T01:47:07;100642.59;;;3.75;100.00
72061;BME280;59925;52.136;5.420;2024-01-06T01:49:34;100647.31;;;3.73;100.00
72061;BME280;59925;52.136;5.420;2024-01-06T01:52:02;100652.38;;;3.74;100.00
72061;BME280;59925;52.136;5.420;2024-01-06T01:54:29;100654.91;;;3.69;100.00
72061;BME280;59925;52.136;5.420;2024-01-06T01:56:56;100646.16;;;3.68;100.00
72061;BME280;59925;52.136;5.420;2024-01-06T01:59:23;100653.31;;;3.68;100.00
72061;BME280;59925;52.136;5.420;2024-01-06T02:01:49;100654.34;;;3.67;100.00
72061;BME280;59925;52.136;5.420;2024-01-06T02:04:16;100661.47;;;3.66;100.00
72061;BME280;59925;52.136;5.420;2024-01-06T02:06:43;100656.75;;;3.68;100.00
72061;BME280;59925;52.136;5.420;2024-01-06T02:09:09;100662.63;;;3.71;100.00
72061;BME280;59925;52.136;5.420;2024-01-06T02:11:36;100667.16;;;3.70;100.00
72061;BME280;59925;52.136;5.420;2024-01-06T02:14:02;100669.81;;;3.70;100.00
72061;BME280;59925;52.136;5.420;2024-01-06T02:16:29;100667.34;;;3.68;100.00
72061;BME280;59925;52.136;5.420;2024-01-06T02:18:55;100672.66;;;3.68;100.00
72061;BME280;59925;52.136;5.420;2024-01-06T02:21:27;100675.91;;;3.71;100.00
72061;BME280;59925;52.136;5.420;2024-01-06T02:23:54;100674.63;;;3.73;100.00
72061;BME280;59925;52.136;5.420;2024-01-06T02:26:20;100681.19;;;3.71;100.00
72061;BME280;59925;52.136;5.420;2024-01-06T02:28:47;100687.28;;;3.71;100.00
72061;BME280;59925;52.136;5.420;2024-01-06T02:31:15;100678.53;;;3.71;100.00
72061;BME280;59925;52.136;5.420;2024-01-06T02:33:42;100686.16;;;3.67;100.00
72061;BME280;59925;52.136;5.420;2024-01-06T02:36:09;100682.47;;;3.68;100.00
72061;BME280;59925;52.136;5.420;2024-01-06T02:38:35;100692.25;;;3.67;100.00
72061;BME280;59925;52.136;5.420;2024-01-06T02:41:02;100693.53;;;3.65;100.00
72061;BME280;59925;52.136;5.420;2024-01-06T02:43:29;100699.06;;;3.63;100.00
72061;BME280;59925;52.136;5.420;2024-01-06T02:45:55;100699.25;;;3.62;100.00
72061;BME280;59925;52.136;5.420;2024-01-06T02:48:22;100711.03;;;3.66;100.00
72061;BME280;59925;52.136;5.420;2024-01-06T02:50:48;100709.66;;;3.63;100.00
72061;BME280;59925;52.136;5.420;2024-01-06T02:53:15;100716.00;;;3.62;100.00
72061;BME280;59925;52.136;5.420;2024-01-06T02:55:41;100718.06;;;3.60;100.00
72061;BME280;59925;52.136;5.420;2024-01-06T02:58:08;100714.81;;;3.58;100.00
72061;BME280;59925;52.136;5.420;2024-01-06T03:00:34;100714.00;;;3.58;100.00
72061;BME280;59925;52.136;5.420;2024-01-06T03:03:01;100714.00;;;3.58;100.00
72061;BME280;59925;52.136;5.420;2024-01-06T03:05:28;100717.72;;;3.57;100.00
72061;BME280;59925;52.136;5.420;2024-01-06T03:07:55;100716.09;;;3.56;100.00
72061;BME280;59925;52.136;5.420;2024-01-06T03:10:22;100716.09;;;3.56;100.00
72061;BME280;59925;52.136;5.420;2024-01-06T03:12:48;100718.94;;;3.54;100.00
72061;BME280;59925;52.136;5.420;2024-01-06T03:15:15;100719.97;;;3.53;100.00
72061;BME280;59925;52.136;5.420;2024-01-06T03:17:42;100723.91;;;3.50;100.00
72061;BME280;59925;52.136;5.420;2024-01-06T03:20:09;100730.00;;;3.51;100.00
72061;BME280;59925;52.136;5.420;2024-01-06T03:22:35;100737.75;;;3.52;100.00
72061;BME280;59925;52.136;5.420;2024-01-06T03:25:04;100743.47;;;3.49;100.00
72061;BME280;59925;52.136;5.420;2024-01-06T03:27:30;100746.97;;;3.50;100.00
72061;BME280;59925;52.136;5.420;2024-01-06T03:29:57;100742.81;;;3.54;100.00
72061;BME280;59925;52.136;5.420;2024-01-06T03:32:23;100743.25;;;3.51;100.00
72061;BME280;59925;52.136;5.420;2024-01-06T03:34:50;100749.59;;;3.50;100.00
72061;BME280;59925;52.136;5.420;2024-01-06T03:37:17;100759.38;;;3.49;100.00
72061;BME280;59925;52.136;5.420;2024-01-06T03:39:44;100760.22;;;3.50;100.00
72061;BME280;59925;52.136;5.420;2024-01-06T03:42:10;100769.75;;;3.51;100.00
72061;BME280;59925;52.136;5.420;2024-01-06T03:44:37;100780.34;;;3.51;100.00
72061;BME280;59925;52.136;5.420;2024-01-06T03:47:03;100789.50;;;3.55;100.00
72061;BME280;59925;52.136;5.420;2024-01-06T03:49:30;100786.25;;;3.53;100.00
72061;BME280;59925;52.136;5.420;2024-01-06T03:51:57;100789.38;;;3.50;100.00
72061;BME280;59925;52.136;5.420;2024-01-06T03:54:23;100785.53;;;3.46;100.00
72061;BME280;59925;52.136;5.420;2024-01-06T03:56:50;100789.22;;;3.45;100.00
72061;BME280;59925;52.136;5.420;2024-01-06T03:59:17;100785.31;;;3.47;100.00
72061;BME280;59925;52.136;5.420;2024-01-06T04:01:43;100791.63;;;3.46;100.00
72061;BME280;59925;52.136;5.420;2024-01-06T04:04:10;100801.44;;;3.46;100.00
72061;BME280;59925;52.136;5.420;2024-01-06T04:06:36;100801.44;;;3.46;100.00
72061;BME280;59925;52.136;5.420;2024-01-06T04:09:03;100813.88;;;3.45;100.00
72061;BME280;59925;52.136;5.420;2024-01-06T04:11:29;100813.50;;;3.42;100.00
72061;BME280;59925;52.136;5.420;2024-01-06T04:13:56;100814.09;;;3.44;100.00
72061;BME280;59925;52.136;5.420;2024-01-06T04:16:22;100813.31;;;3.43;100.00
72061;BME280;59925;52.136;5.420;2024-01-06T04:18:49;100807.19;;;3.43;100.00
72061;BME280;59925;52.136;5.420;2024-01-06T04:21:16;100813.75;;;3.40;100.00
72061;BME280;59925;52.136;5.420;2024-01-06T04:23:42;100811.88;;;3.41;100.00
72061;BME280;59925;52.136;5.420;2024-01-06T04:26:09;100816.16;;;3.42;100.00
72061;BME280;59925;52.136;5.420;2024-01-06T04:28:36;100801.94;;;3.36;100.00
72061;BME280;59925;52.136;5.420;2024-01-06T04:31:02;100815.44;;;3.34;100.00
72061;BME280;59925;52.136;5.420;2024-01-06T04:33:30;100806.22;;;3.37;100.00
72061;BME280;59925;52.136;5.420;2024-01-06T04:35:57;100814.41;;;3.35;100.00
72061;BME280;59925;52.136;5.420;2024-01-06T04:38:25;100819.13;;;3.33;100.00
72061;BME280;59925;52.136;5.420;2024-01-06T04:40:51;100821.53;;;3.35;100.00
72061;BME280;59925;52.136;5.420;2024-01-06T04:43:18;100826.47;;;3.31;100.00
72061;BME280;59925;52.136;5.420;2024-01-06T04:45:44;100829.13;;;3.31;100.00
72061;BME280;59925;52.136;5.420;2024-01-06T04:48:11;100828.97;;;3.26;100.00
72061;BME280;59925;52.136;5.420;2024-01-06T04:50:38;100825.75;;;3.24;100.00
72061;BME280;59925;52.136;5.420;2024-01-06T04:53:05;100833.53;;;3.19;100.00
72061;BME280;59925;52.136;5.420;2024-01-06T04:55:31;100840.47;;;3.20;100.00
72061;BME280;59925;52.136;5.420;2024-01-06T04:57:58;100837.44;;;3.16;100.00
72061;BME280;59925;52.136;5.420;2024-01-06T05:00:24;100845.16;;;3.18;100.00
72061;BME280;59925;52.136;5.420;2024-01-06T05:02:52;100848.25;;;3.15;100.00
72061;BME280;59925;52.136;5.420;2024-01-06T05:05:18;100844.19;;;3.12;100.00
72061;BME280;59925;52.136;5.420;2024-01-06T05:07:45;100849.13;;;3.09;100.00
72061;BME280;59925;52.136;5.420;2024-01-06T05:10:12;100851.19;;;3.06;100.00
72061;BME280;59925;52.136;5.420;2024-01-06T05:12:38;100852.81;;;3.08;100.00
72061;BME280;59925;52.136;5.420;2024-01-06T05:15:05;100859.72;;;3.09;100.00
72061;BME280;59925;52.136;5.420;2024-01-06T05:17:31;100863.19;;;3.09;100.00
72061;BME280;59925;52.136;5.420;2024-01-06T05:19:58;100864.19;;;3.08;100.00
72061;BME280;59925;52.136;5.420;2024-01-06T05:22:26;100874.44;;;3.04;100.00
72061;BME280;59925;52.136;5.420;2024-01-06T05:24:53;100870.97;;;3.04;100.00
72061;BME280;59925;52.136;5.420;2024-01-06T05:27:20;100888.03;;;3.08;100.00
72061;BME280;59925;52.136;5.420;2024-01-06T05:29:46;100880.53;;;3.05;100.00
72061;BME280;59925;52.136;5.420;2024-01-06T05:32:16;100892.59;;;3.01;100.00
72061;BME280;59925;52.136;5.420;2024-01-06T05:34:43;100892.81;;;2.99;100.00
72061;BME280;59925;52.136;5.420;2024-01-06T05:37:11;100887.72;;;2.98;100.00
72061;BME280;59925;52.136;5.420;2024-01-06T05:39:38;100893.44;;;2.95;100.00
72061;BME280;59925;52.136;5.420;2024-01-06T05:42:07;100896.09;;;2.95;100.00
72061;BME280;59925;52.136;5.420;2024-01-06T05:44:37;100900.38;;;2.96;100.00
72061;BME280;59925;52.136;5.420;2024-01-06T05:47:04;100904.88;;;2.95;100.00
72061;BME280;59925;52.136;5.420;2024-01-06T05:49:31;100904.88;;;2.95;100.00
72061;BME280;59925;52.136;5.420;2024-01-06T05:51:57;100903.84;;;2.96;100.00
72061;BME280;59925;52.136;5.420;2024-01-06T05:54:24;100912.81;;;2.95;100.00
72061;BME280;59925;52.136;5.420;2024-01-06T05:56:51;100915.28;;;2.90;100.00
72061;BME280;59925;52.136;5.420;2024-01-06T05:59:17;100906.75;;;2.88;100.00
72061;BME280;59925;52.136;5.420;2024-01-06T06:01:44;100908.00;;;2.85;100.00
72061;BME280;59925;52.136;5.420;2024-01-06T06:04:11;100918.38;;;2.87;100.00
72061;BME280;59925;52.136;5.420;2024-01-06T06:06:38;100923.88;;;2.85;100.00
72061;BME280;59925;52.136;5.420;2024-01-06T06:09:04;100928.59;;;2.83;100.00
72061;BME280;59925;52.136;5.420;2024-01-06T06:11:33;100934.91;;;2.82;100.00
72061;BME280;59925;52.136;5.420;2024-01-06T06:14:00;100937.34;;;2.84;100.00
72061;BME280;59925;52.136;5.420;2024-01-06T06:16:29;100947.53;;;2.80;100.00
72061;BME280;59925;52.136;5.420;2024-01-06T06:18:56;100949.81;;;2.76;100.00
72061;BME280;59925;52.136;5.420;2024-01-06T06:21:22;100949.22;;;2.74;100.00
72061;BME280;59925;52.136;5.420;2024-01-06T06:23:49;100953.72;;;2.74;100.00
72061;BME280;59925;52.136;5.420;2024-01-06T06:26:16;100955.75;;;2.72;100.00
72061;BME280;59925;52.136;5.420;2024-01-06T06:28:42;100960.22;;;2.71;100.00
72061;BME280;59925;52.136;5.420;2024-01-06T06:31:09;100963.09;;;2.70;100.00
72061;BME280;59925;52.136;5.420;2024-01-06T06:33:36;100964.50;;;2.72;100.00
72061;BME280;59925;52.136;5.420;2024-01-06T06:36:03;100968.00;;;2.66;100.00
72061;BME280;59925;52.136;5.420;2024-01-06T06:38:30;100972.88;;;2.69;100.00
72061;BME280;59925;52.136;5.420;2024-01-06T06:40:57;100977.34;;;2.69;100.00
72061;BME280;59925;52.136;5.420;2024-01-06T06:43:23;100982.66;;;2.69;100.00
72061;BME280;59925;52.136;5.420;2024-01-06T06:45:50;100987.16;;;2.68;100.00
72061;BME280;59925;52.136;5.420;2024-01-06T06:48:17;100989.78;;;2.68;100.00
72061;BME280;59925;52.136;5.420;2024-01-06T06:50:43;100998.94;;;2.66;100.00
72061;BME280;59925;52.136;5.420;2024-01-06T06:53:10;101000.56;;;2.67;100.00
72061;BME280;59925;52.136;5.420;2024-01-06T06:55:37;101001.59;;;2.66;100.00
72061;BME280;59925;52.136;5.420;2024-01-06T06:58:04;101010.59;;;2.65;100.00
72061;BME280;59925;52.136;5.420;2024-01-06T07:00:32;101008.97;;;2.64;100.00
72061;BME280;59925;52.136;5.420;2024-01-06T07:02:58;101021.75;;;2.67;100.00
72061;BME280;59925;52.136;5.420;2024-01-06T07:05:26;101024.41;;;2.67;100.00
72061;BME280;59925;52.136;5.420;2024-01-06T07:07:53;101023.38;;;2.68;100.00
72061;BME280;59925;52.136;5.420;2024-01-06T07:10:19;101029.50;;;2.68;100.00
72061;BME280;59925;52.136;5.420;2024-01-06T07:12:46;101035.97;;;2.72;100.00
72061;BME280;59925;52.136;5.420;2024-01-06T07:15:12;101031.13;;;2.69;100.00
72061;BME280;59925;52.136;5.420;2024-01-06T07:17:39;101050.31;;;2.65;100.00
72061;BME280;59925;52.136;5.420;2024-01-06T07:20:07;101037.06;;;2.65;100.00
72061;BME280;59925;52.136;5.420;2024-01-06T07:22:34;101051.31;;;2.64;100.00
72061;BME280;59925;52.136;5.420;2024-01-06T07:25:03;101056.63;;;2.64;100.00
72061;BME280;59925;52.136;5.420;2024-01-06T07:27:30;101060.06;;;2.64;100.00
72061;BME280;59925;52.136;5.420;2024-01-06T07:29:56;101054.38;;;2.60;100.00
72061;BME280;59925;52.136;5.420;2024-01-06T07:32:23;101056.41;;;2.58;100.00
72061;BME280;59925;52.136;5.420;2024-01-06T07:34:51;101066.38;;;2.63;100.00
72061;BME280;59925;52.136;5.420;2024-01-06T07:37:18;101066.78;;;2.60;100.00
72061;BME280;59925;52.136;5.420;2024-01-06T07:39:44;101064.75;;;2.62;100.00
72061;BME280;59925;52.136;5.420;2024-01-06T07:42:11;101063.56;;;2.58;100.00
72061;BME280;59925;52.136;5.420;2024-01-06T07:44:38;101076.56;;;2.59;100.00
72061;BME280;59925;52.136;5.420;2024-01-06T07:47:04;101074.16;;;2.58;100.00
72061;BME280;59925;52.136;5.420;2024-01-06T07:49:32;101081.25;;;2.57;100.00
72061;BME280;59925;52.136;5.420;2024-01-06T07:51:59;101092.25;;;2.61;100.00
72061;BME280;59925;52.136;5.420;2024-01-06T07:54:26;101096.72;;;2.60;100.00
72061;BME280;59925;52.136;5.420;2024-01-06T07:56:53;101105.91;;;2.58;100.00
72061;BME280;59925;52.136;5.420;2024-01-06T07:59:20;101111.00;;;2.59;100.00
72061;BME280;59925;52.136;5.420;2024-01-06T08:01:46;101109.13;;;2.60;100.00
72061;BME280;59925;52.136;5.420;2024-01-06T08:04:13;101109.13;;;2.60;100.00
72061;BME280;59925;52.136;5.420;2024-01-06T08:06:39;101112.22;;;2.57;100.00
72061;BME280;59925;52.136;5.420;2024-01-06T08:09:06;101118.94;;;2.59;100.00
72061;BME280;59925;52.136;5.420;2024-01-06T08:11:33;101124.22;;;2.59;100.00
72061;BME280;59925;52.136;5.420;2024-01-06T08:13:59;101124.84;;;2.62;100.00
72061;BME280;59925;52.136;5.420;2024-01-06T08:16:26;101127.66;;;2.60;100.00
72061;BME280;59925;52.136;5.420;2024-01-06T08:18:52;101139.88;;;2.61;100.00
72061;BME280;59925;52.136;5.420;2024-01-06T08:21:19;101135.41;;;2.62;100.00
72061;BME280;59925;52.136;5.420;2024-01-06T08:23:46;101139.88;;;2.61;100.00
72061;BME280;59925;52.136;5.420;2024-01-06T08:26:12;101131.75;;;2.63;100.00
72061;BME280;59925;52.136;5.420;2024-01-06T08:28:39;101142.13;;;2.64;100.00
72061;BME280;59925;52.136;5.420;2024-01-06T08:31:05;101137.66;;;2.65;100.00
72061;BME280;59925;52.136;5.420;2024-01-06T08:33:32;101144.78;;;2.64;100.00
72061;BME280;59925;52.136;5.420;2024-01-06T08:35:59;101156.19;;;2.65;100.00
72061;BME280;59925;52.136;5.420;2024-01-06T08:38:26;101148.44;;;2.63;100.00
72061;BME280;59925;52.136;5.420;2024-01-06T08:40:53;101154.13;;;2.67;100.00
72061;BME280;59925;52.136;5.420;2024-01-06T08:43:20;101160.03;;;2.69;100.00
72061;BME280;59925;52.136;5.420;2024-01-06T08:45:46;101166.94;;;2.70;100.00
72061;BME280;59925;52.136;5.420;2024-01-06T08:48:14;101172.84;;;2.72;100.00
72061;BME280;59925;52.136;5.420;2024-01-06T08:50:42;101180.19;;;2.70;100.00
72061;BME280;59925;52.136;5.420;2024-01-06T08:53:08;101187.09;;;2.71;100.00
72061;BME280;59925;52.136;5.420;2024-01-06T08:55:35;101185.88;;;2.73;100.00
72061;BME280;59925;52.136;5.420;2024-01-06T08:58:02;101193.63;;;2.75;100.00
72061;BME280;59925;52.136;5.420;2024-01-06T09:00:28;101193.63;;;2.75;100.00
72061;BME280;59925;52.136;5.420;2024-01-06T09:02:56;101201.56;;;2.75;100.00
72061;BME280;59925;52.136;5.420;2024-01-06T09:05:22;101208.91;;;2.73;100.00
72061;BME280;59925;52.136;5.420;2024-01-06T09:07:49;101204.41;;;2.73;100.00
72061;BME280;59925;52.136;5.420;2024-01-06T09:10:21;101216.22;;;2.78;100.00
72061;BME280;59925;52.136;5.420;2024-01-06T09:12:47;101213.19;;;2.74;100.00
72061;BME280;59925;52.136;5.420;2024-01-06T09:15:14;101220.28;;;2.73;100.00
72061;BME280;59925;52.136;5.420;2024-01-06T09:17:41;101215.22;;;2.72;100.00
72061;BME280;59925;52.136;5.420;2024-01-06T09:20:08;101221.31;;;2.72;100.00
72061;BME280;59925;52.136;5.420;2024-01-06T09:22:35;101223.34;;;2.77;100.00
72061;BME280;59925;52.136;5.420;2024-01-06T09:25:01;101238.41;;;2.76;100.00
72061;BME280;59925;52.136;5.420;2024-01-06T09:27:28;101231.09;;;2.79;100.00
72061;BME280;59925;52.136;5.420;2024-01-06T09:29:55;101243.69;;;2.83;100.00
72061;BME280;59925;52.136;5.420;2024-01-06T09:32:21;101247.16;;;2.90;100.00
72061;BME280;59925;52.136;5.420;2024-01-06T09:34:49;101251.41;;;2.91;100.00
72061;BME280;59925;52.136;5.420;2024-01-06T09:37:16;101249.38;;;2.94;100.00
72061;BME280;59925;52.136;5.420;2024-01-06T09:39:43;101245.28;;;2.98;100.00
72061;BME280;59925;52.136;5.420;2024-01-06T09:42:09;101256.28;;;2.95;100.00
72061;BME280;59925;52.136;5.420;2024-01-06T09:44:38;101264.63;;;2.98;100.00
72061;BME280;59925;52.136;5.420;2024-01-06T09:47:05;101268.13;;;2.99;100.00
72061;BME280;59925;52.136;5.420;2024-01-06T09:49:34;101272.38;;;3.00;100.00
72061;BME280;59925;52.136;5.420;2024-01-06T09:52:01;101269.53;;;3.01;100.00
72061;BME280;59925;52.136;5.420;2024-01-06T09:54:30;101268.88;;;3.06;100.00
72061;BME280;59925;52.136;5.420;2024-01-06T09:57:01;101278.69;;;3.05;100.00
72061;BME280;59925;52.136;5.420;2024-01-06T09:59:30;101277.44;;;3.08;100.00
72061;BME280;59925;52.136;5.420;2024-01-06T10:02:01;101274.00;;;3.08;100.00
72061;BME280;59925;52.136;5.420;2024-01-06T10:04:28;101279.91;;;3.10;100.00
72061;BME280;59925;52.136;5.420;2024-01-06T10:06:54;101276.81;;;3.13;100.00
72061;BME280;59925;52.136;5.420;2024-01-06T10:09:30;101283.97;;;3.12;100.00
72061;BME280;59925;52.136;5.420;2024-01-06T10:11:57;101301.28;;;3.15;100.00
72061;BME280;59925;52.136;5.420;2024-01-06T10:14:25;101294.97;;;3.16;100.00
72061;BME280;59925;52.136;5.420;2024-01-06T10:16:52;101303.53;;;3.11;100.00
72061;BME280;59925;52.136;5.420;2024-01-06T10:19:19;101315.16;;;3.10;100.00
72061;BME280;59925;52.136;5.420;2024-01-06T10:21:46;101309.84;;;3.10;100.00
72061;BME280;59925;52.136;5.420;2024-01-06T10:24:13;101312.09;;;3.13;100.00
72061;BME280;59925;52.136;5.420;2024-01-06T10:26:40;101316.56;;;3.13;100.00
72061;BME280;59925;52.136;5.420;2024-01-06T10:29:07;101325.94;;;3.15;100.00
72061;BME280;59925;52.136;5.420;2024-01-06T10:31:34;101326.13;;;3.14;100.00
72061;BME280;59925;52.136;5.420;2024-01-06T10:34:01;101331.03;;;3.10;100.00
72061;BME280;59925;52.136;5.420;2024-01-06T10:36:28;101333.91;;;3.09;100.00
72061;BME280;59925;52.136;5.420;2024-01-06T10:38:55;101328.81;;;3.07;100.00
72061;BME280;59925;52.136;5.420;2024-01-06T10:41:22;101328.19;;;3.05;100.00
72061;BME280;59925;52.136;5.420;2024-01-06T10:43:50;101327.78;;;3.01;100.00
72061;BME280;59925;52.136;5.420;2024-01-06T10:46:22;101327.00;;;3.01;100.00
72061;BME280;59925;52.136;5.420;2024-01-06T10:48:50;101336.56;;;3.02;100.00
72061;BME280;59925;52.136;5.420;2024-01-06T10:51:19;101332.69;;;3.04;100.00
72061;BME280;59925;52.136;5.420;2024-01-06T10:53:46;101326.78;;;3.09;100.00
72061;BME280;59925;52.136;5.420;2024-01-06T10:56:13;101332.28;;;3.08;100.00
72061;BME280;59925;52.136;5.420;2024-01-06T10:58:45;101339.81;;;3.11;100.00
72061;BME280;59925;52.136;5.420;2024-01-06T11:01:14;101344.69;;;3.07;100.00
72061;BME280;59925;52.136;5.420;2024-01-06T11:03:45;101338.19;;;3.10;100.00
72061;BME280;59925;52.136;5.420;2024-01-06T11:06:14;101346.94;;;3.10;100.00
72061;BME280;59925;52.136;5.420;2024-01-06T11:08:48;101344.06;;;3.12;100.00
72061;BME280;59925;52.136;5.420;2024-01-06T11:11:17;101350.19;;;3.12;100.00
72061;BME280;59925;52.136;5.420;2024-01-06T11:13:46;101349.38;;;3.12;100.00
72061;BME280;59925;52.136;5.420;2024-01-06T11:16:34;101351.22;;;3.11;100.00
72061;BME280;59925;52.136;5.420;2024-01-06T11:19:00;101359.78;;;3.13;100.00
72061;BME280;59925;52.136;5.420;2024-01-06T11:21:33;101353.25;;;3.16;100.00
72061;BME280;59925;52.136;5.420;2024-01-06T11:26:33;101358.34;;;3.17;100.00
72061;BME280;59925;52.136;5.420;2024-01-06T11:29:00;101349.34;;;3.18;100.00
72061;BME280;59925;52.136;5.420;2024-01-06T11:31:30;101352.84;;;3.19;100.00
72061;BME280;59925;52.136;5.420;2024-01-06T11:34:12;101358.53;;;3.22;100.00
72061;BME280;59925;52.136;5.420;2024-01-06T11:36:39;101357.13;;;3.20;100.00
72061;BME280;59925;52.136;5.420;2024-01-06T11:39:05;101353.66;;;3.19;100.00
72061;BME280;59925;52.136;5.420;2024-01-06T11:41:48;101352.63;;;3.20;100.00
72061;BME280;59925;52.136;5.420;2024-01-06T11:44:20;101357.94;;;3.20;100.00
72061;BME280;59925;52.136;5.420;2024-01-06T11:46:47;101358.75;;;3.21;100.00
72061;BME280;59925;52.136;5.420;2024-01-06T11:49:20;101363.22;;;3.20;100.00
72061;BME280;59925;52.136;5.420;2024-01-06T11:51:48;101363.66;;;3.17;100.00
72061;BME280;59925;52.136;5.420;2024-01-06T11:54:15;101355.50;;;3.19;100.00
72061;BME280;59925;52.136;5.420;2024-01-06T11:56:42;101355.09;;;3.22;100.00
72061;BME280;59925;52.136;5.420;2024-01-06T11:59:08;101360.16;;;3.24;100.00
72061;BME280;59925;52.136;5.420;2024-01-06T12:01:38;101360.38;;;3.22;100.00
72061;BME280;59925;52.136;5.420;2024-01-06T12:04:06;101363.66;;;3.24;100.00
72061;BME280;59925;52.136;5.420;2024-01-06T12:06:33;101360.38;;;3.22;100.00
72061;BME280;59925;52.136;5.420;2024-01-06T12:09:07;101361.41;;;3.21;100.00
72061;BME280;59925;52.136;5.420;2024-01-06T12:11:34;101360.19;;;3.17;100.00
72061;BME280;59925;52.136;5.420;2024-01-06T12:14:01;101361.41;;;3.14;100.00
72061;BME280;59925;52.136;5.420;2024-01-06T12:16:27;101363.22;;;3.14;100.00
72061;BME280;59925;52.136;5.420;2024-01-06T12:18:55;101366.72;;;3.14;100.00
72061;BME280;59925;52.136;5.420;2024-01-06T12:21:25;101367.91;;;3.12;100.00
72061;BME280;59925;52.136;5.420;2024-01-06T12:23:51;101373.22;;;3.12;100.00
72061;BME280;59925;52.136;5.420;2024-01-06T12:26:18;101375.88;;;3.12;100.00
72061;BME280;59925;52.136;5.420;2024-01-06T12:28:45;101381.38;;;3.10;100.00
72061;BME280;59925;52.136;5.420;2024-01-06T12:31:12;101375.28;;;3.10;100.00
72061;BME280;59925;52.136;5.420;2024-01-06T12:33:39;101379.13;;;3.07;100.00
72061;BME280;59925;52.136;5.420;2024-01-06T12:36:07;101378.13;;;3.08;100.00
72061;BME280;59925;52.136;5.420;2024-01-06T12:38:46;101387.09;;;3.07;100.00
72061;BME280;59925;52.136;5.420;2024-01-06T12:41:12;101383.63;;;3.06;100.00
72061;BME280;59925;52.136;5.420;2024-01-06T12:43:39;101386.69;;;3.03;100.00
72061;BME280;59925;52.136;5.420;2024-01-06T12:46:06;101382.41;;;3.02;100.00
72061;BME280;59925;52.136;5.420;2024-01-06T12:48:32;101377.31;;;3.01;100.00
72061;BME280;59925;52.136;5.420;2024-01-06T12:50:59;101383.25;;;3.03;100.00
72061;BME280;59925;52.136;5.420;2024-01-06T12:53:25;101382.22;;;3.04;100.00